Time;durP1;ratioP1;P1;durP2;ratioP2;P2;SDS_P1;SDS_P2;PMS_P1;PMS_P2;Temp;Humidity;BMP_temperature;BMP_pressure;BME280_temperature;BME280_humidity;BME280_pressure;Samples;Min_cycle;Max_cycle;Signal;HPM_P1;HPM_P2
2022/12/07 00:01:20;;;;;;;12.20;6.07;;;2.60;99.90;;;;;;5026212;28;20437;-58
2022/12/07 00:03:48;;;;;;;9.97;5.40;;;2.60;99.90;;;;;;5023228;28;20184;-57
2022/12/07 00:06:16;;;;;;;11.63;5.97;;;2.60;99.90;;;;;;5028515;28;20442;-58
2022/12/07 00:08:42;;;;;;;11.17;5.43;;;2.60;99.90;;;;;;5029207;28;20520;-58
2022/12/07 00:11:11;;;;;;;11.27;5.63;;;2.60;99.90;;;;;;5009566;28;20434;-58
2022/12/07 00:13:37;;;;;;;12.60;5.73;;;2.60;99.90;;;;;;5027812;28;20517;-59
2022/12/07 00:16:18;;;;;;;8.30;5.40;;;2.60;99.90;;;;;;5023865;28;20916;-59
2022/12/07 00:18:44;;;;;;;13.60;6.70;;;2.60;99.90;;;;;;5020582;28;20958;-59
2022/12/07 00:21:11;;;;;;;13.60;6.13;;;2.60;99.90;;;;;;5025348;28;21022;-58
2022/12/07 00:23:38;;;;;;;10.17;5.80;;;2.60;99.90;;;;;;5023231;28;20443;-58
2022/12/07 00:26:10;;;;;;;13.40;6.70;;;2.60;99.90;;;;;;5024418;28;20450;-59
2022/12/07 00:28:36;;;;;;;11.50;6.60;;;2.60;99.90;;;;;;5024464;28;20434;-58
2022/12/07 00:31:10;;;;;;;12.27;6.37;;;2.50;99.90;;;;;;5023769;28;20442;-58
2022/12/07 00:33:38;;;;;;;12.13;6.50;;;2.60;99.90;;;;;;5021809;28;20438;-59
2022/12/07 00:36:07;;;;;;;10.90;6.20;;;2.50;99.90;;;;;;5017855;28;20486;-58
2022/12/07 00:38:34;;;;;;;14.00;7.27;;;2.60;99.90;;;;;;5027104;28;20453;-58
2022/12/07 00:41:03;;;;;;;16.53;7.73;;;2.60;99.90;;;;;;5028606;28;20434;-58
2022/12/07 00:43:29;;;;;;;12.50;6.07;;;2.50;99.90;;;;;;5021396;28;20517;-58
2022/12/07 00:45:56;;;;;;;13.50;6.80;;;2.60;99.90;;;;;;5025048;28;20439;-57
2022/12/07 00:48:22;;;;;;;12.70;5.80;;;2.50;99.90;;;;;;5022297;28;20541;-58
2022/12/07 00:50:48;;;;;;;12.90;7.10;;;2.60;99.90;;;;;;5025257;28;20521;-58
2022/12/07 00:53:14;;;;;;;11.20;7.20;;;2.60;99.90;;;;;;5024818;28;20446;-58
2022/12/07 00:55:40;;;;;;;10.63;6.60;;;2.60;99.90;;;;;;5004644;28;20458;-58
2022/12/07 00:58:06;;;;;;;13.53;6.50;;;2.60;99.90;;;;;;5014993;28;20519;-58
2022/12/07 01:00:33;;;;;;;9.70;5.87;;;2.60;99.90;;;;;;5023712;28;20636;-58
2022/12/07 01:02:59;;;;;;;11.67;6.83;;;2.70;99.90;;;;;;5026809;28;20262;-58
2022/12/07 01:05:25;;;;;;;8.93;5.17;;;2.70;99.90;;;;;;5025954;28;20998;-58
2022/12/07 01:07:50;;;;;;;12.93;6.57;;;2.70;99.90;;;;;;5025684;28;20500;-58
2022/12/07 01:10:16;;;;;;;10.10;6.00;;;2.70;99.90;;;;;;5024992;28;20194;-58
2022/12/07 01:12:41;;;;;;;10.77;6.23;;;2.70;99.90;;;;;;5023154;28;20188;-58
2022/12/07 01:15:08;;;;;;;9.57;6.37;;;2.70;99.90;;;;;;5024935;28;20668;-57
2022/12/07 01:17:34;;;;;;;13.73;6.53;;;2.70;99.90;;;;;;5024833;28;20257;-57
2022/12/07 01:20:00;;;;;;;10.63;6.00;;;2.60;99.90;;;;;;5020372;28;20434;-57
2022/12/07 01:22:26;;;;;;;13.10;7.20;;;2.60;99.90;;;;;;5034121;28;20475;-57
2022/12/07 01:24:51;;;;;;;13.27;7.00;;;2.60;99.90;;;;;;5022004;28;20932;-57
2022/12/07 01:27:17;;;;;;;10.50;6.40;;;2.60;99.90;;;;;;5026431;28;20461;-57
2022/12/07 01:29:43;;;;;;;13.40;6.90;;;2.70;99.90;;;;;;5024004;28;20189;-57
2022/12/07 01:32:08;;;;;;;12.90;6.57;;;2.70;99.90;;;;;;5010495;28;20211;-58
2022/12/07 01:34:34;;;;;;;12.73;6.50;;;2.60;99.90;;;;;;5020034;28;20210;-58
2022/12/07 01:36:59;;;;;;;9.97;6.27;;;2.60;99.90;;;;;;5025771;28;20683;-57
2022/12/07 01:39:26;;;;;;;11.40;6.90;;;2.60;99.90;;;;;;5029451;28;20184;-58
2022/12/07 01:41:52;;;;;;;9.27;5.37;;;2.60;99.90;;;;;;5010773;28;20179;-58
2022/12/07 01:44:25;;;;;;;9.93;5.80;;;2.60;99.90;;;;;;5027764;28;20429;-57
2022/12/07 01:46:55;;;;;;;13.00;6.03;;;2.60;99.90;;;;;;5027996;28;20630;-58
2022/12/07 01:49:24;;;;;;;10.77;6.07;;;2.60;99.90;;;;;;5023887;28;20963;-59
2022/12/07 01:51:52;;;;;;;12.03;5.87;;;2.60;99.90;;;;;;5027773;28;20444;-59
2022/12/07 01:54:20;;;;;;;7.87;4.80;;;2.60;99.90;;;;;;5027905;28;20819;-59
2022/12/07 01:56:52;;;;;;;10.00;5.47;;;2.60;99.90;;;;;;5028477;28;20488;-59
2022/12/07 01:59:21;;;;;;;10.57;5.33;;;2.60;99.90;;;;;;5029885;28;20434;-58
2022/12/07 02:01:46;;;;;;;8.50;5.20;;;2.70;99.90;;;;;;5030172;28;21182;-58
2022/12/07 02:04:12;;;;;;;9.50;5.53;;;2.70;99.90;;;;;;5028972;28;20493;-58
2022/12/07 02:06:38;;;;;;;10.07;6.03;;;2.70;99.90;;;;;;5031030;28;20302;-58
2022/12/07 02:09:05;;;;;;;8.90;5.30;;;2.70;99.90;;;;;;5028482;28;20179;-58
2022/12/07 02:11:31;;;;;;;9.20;5.20;;;2.70;99.90;;;;;;5031331;28;20548;-59
2022/12/07 02:13:58;;;;;;;8.63;5.10;;;2.70;99.90;;;;;;5024368;28;20523;-58
2022/12/07 02:16:42;;;;;;;9.97;5.17;;;2.70;99.90;;;;;;5010247;28;20474;-58
2022/12/07 02:19:30;;;;;;;11.20;5.77;;;2.70;99.90;;;;;;5028358;28;20442;-57
2022/12/07 02:22:14;;;;;;;9.50;4.97;;;2.70;99.90;;;;;;5031383;28;20445;-57
2022/12/07 02:24:54;;;;;;;10.13;5.50;;;2.70;99.90;;;;;;5025562;28;20477;-58
2022/12/07 02:27:23;;;;;;;7.97;4.00;;;2.70;99.90;;;;;;5020315;28;20449;-57
2022/12/07 02:30:03;;;;;;;7.90;4.97;;;2.70;99.90;;;;;;5026690;28;20453;-57
2022/12/07 02:32:41;;;;;;;10.03;5.23;;;2.70;99.90;;;;;;5025642;28;20426;-57
2022/12/07 02:35:10;;;;;;;9.53;5.30;;;2.70;99.90;;;;;;5026228;28;20457;-58
2022/12/07 02:37:54;;;;;;;10.17;5.60;;;2.70;99.90;;;;;;5026422;28;20480;-57
2022/12/07 02:40:38;;;;;;;7.20;4.60;;;2.70;99.90;;;;;;5031006;28;20982;-57
2022/12/07 02:43:28;;;;;;;8.37;4.70;;;2.70;99.90;;;;;;5009564;28;20814;-57
2022/12/07 02:46:01;;;;;;;8.53;4.30;;;2.70;99.90;;;;;;5024310;28;20942;-58
2022/12/07 02:48:28;;;;;;;5.67;3.90;;;2.70;99.90;;;;;;5028685;28;20449;-58
2022/12/07 02:50:54;;;;;;;5.03;3.50;;;2.70;99.90;;;;;;5029027;28;20462;-58
2022/12/07 02:53:36;;;;;;;5.47;3.80;;;2.70;99.90;;;;;;5028296;28;20438;-59
2022/12/07 02:56:32;;;;;;;6.43;3.90;;;2.70;99.90;;;;;;5023088;28;20557;-56
2022/12/07 02:59:20;;;;;;;5.60;3.57;;;2.70;99.90;;;;;;5027174;28;20438;-58
2022/12/07 03:02:13;;;;;;;5.40;3.67;;;2.70;99.90;;;;;;5026258;28;20438;-57
2022/12/07 03:05:12;;;;;;;6.00;3.67;;;2.70;99.90;;;;;;5023367;28;20450;-57
2022/12/07 03:07:59;;;;;;;6.50;4.17;;;2.70;99.90;;;;;;5028324;28;20502;-58
2022/12/07 03:10:33;;;;;;;6.80;4.20;;;2.70;99.90;;;;;;5021520;28;20441;-58
2022/12/07 03:13:50;;;;;;;7.90;3.90;;;2.70;99.90;;;;;;5016462;28;20430;-58
2022/12/07 03:16:18;;;;;;;7.93;4.47;;;2.70;99.90;;;;;;4962226;28;20478;-57
2022/12/07 03:18:59;;;;;;;8.17;4.60;;;2.70;99.90;;;;;;5021754;28;20461;-58
2022/12/07 03:21:31;;;;;;;14.03;4.60;;;2.70;99.90;;;;;;5020668;28;20487;-58
2022/12/07 03:24:00;;;;;;;5.80;4.33;;;2.60;99.90;;;;;;5025865;28;20469;-58
2022/12/07 03:26:33;;;;;;;7.63;4.57;;;2.60;99.90;;;;;;5027590;28;20431;-57
2022/12/07 03:29:05;;;;;;;7.50;4.33;;;2.60;99.90;;;;;;5022040;28;21046;-58
2022/12/07 03:31:38;;;;;;;5.93;3.43;;;2.60;99.90;;;;;;5021003;28;20438;-57
2022/12/07 03:34:14;;;;;;;7.00;4.23;;;2.60;99.90;;;;;;5024723;28;20449;-57
2022/12/07 03:36:49;;;;;;;8.77;4.70;;;2.60;99.90;;;;;;5006008;28;20468;-57
2022/12/07 03:39:36;;;;;;;7.13;4.37;;;2.60;99.90;;;;;;5022582;28;20445;-57
2022/12/07 03:42:05;;;;;;;6.80;4.20;;;2.60;99.90;;;;;;5025952;28;20801;-58
2022/12/07 03:44:32;;;;;;;9.50;4.50;;;2.50;99.90;;;;;;5024745;28;20429;-57
2022/12/07 03:47:13;;;;;;;6.23;4.10;;;2.50;99.90;;;;;;5012529;28;20482;-57
2022/12/07 03:50:00;;;;;;;4.20;3.20;;;2.50;99.90;;;;;;5003187;28;20464;-57
2022/12/07 03:52:52;;;;;;;5.47;3.60;;;2.50;99.90;;;;;;5021857;28;20488;-57
2022/12/07 03:55:37;;;;;;;6.87;4.00;;;2.50;99.90;;;;;;5020111;28;20557;-57
2022/12/07 03:58:08;;;;;;;8.60;4.67;;;2.50;99.90;;;;;;5006676;28;20847;-57
2022/12/07 04:00:33;;;;;;;8.43;4.70;;;2.50;99.90;;;;;;5009273;28;20457;-57
2022/12/07 04:03:00;;;;;;;4.40;3.30;;;2.50;99.90;;;;;;5014806;28;20536;-57
2022/12/07 04:05:26;;;;;;;4.90;3.60;;;2.50;99.90;;;;;;5021753;28;20458;-57
2022/12/07 04:07:52;;;;;;;3.90;2.97;;;2.50;99.90;;;;;;5009168;28;20207;-57
2022/12/07 04:10:18;;;;;;;3.73;2.90;;;2.50;99.90;;;;;;5030390;28;20537;-58
2022/12/07 04:12:43;;;;;;;4.80;3.87;;;2.40;99.90;;;;;;5024219;28;20225;-57
2022/12/07 04:15:09;;;;;;;5.40;4.20;;;2.40;99.90;;;;;;5026440;28;21011;-58
2022/12/07 04:17:35;;;;;;;7.50;4.27;;;2.40;99.90;;;;;;5028941;28;20192;-57
2022/12/07 04:20:03;;;;;;;5.50;3.50;;;2.40;99.90;;;;;;5026964;28;20441;-58
2022/12/07 04:22:29;;;;;;;6.83;4.10;;;2.40;99.90;;;;;;5024906;28;20175;-58
2022/12/07 04:24:54;;;;;;;6.40;4.07;;;2.40;99.90;;;;;;5029247;28;20422;-57
2022/12/07 04:27:20;;;;;;;8.13;4.73;;;2.40;99.90;;;;;;5023854;28;20199;-58
2022/12/07 04:29:46;;;;;;;5.57;4.00;;;2.40;99.90;;;;;;5026260;28;20227;-58
2022/12/07 04:32:11;;;;;;;6.53;4.30;;;2.40;99.90;;;;;;5025483;28;20176;-57
2022/12/07 04:34:37;;;;;;;7.10;4.13;;;2.40;99.90;;;;;;5024999;28;20186;-58
2022/12/07 04:37:02;;;;;;;7.93;4.30;;;2.40;99.90;;;;;;5022896;28;20212;-58
2022/12/07 04:39:30;;;;;;;7.27;4.10;;;2.40;99.90;;;;;;5025586;28;20172;-57
2022/12/07 04:41:57;;;;;;;5.10;3.90;;;2.40;99.90;;;;;;5021733;28;20184;-58
2022/12/07 04:44:24;;;;;;;6.03;3.77;;;2.40;99.90;;;;;;5025627;28;20870;-58
2022/12/07 04:46:50;;;;;;;5.87;3.97;;;2.40;99.90;;;;;;5027068;28;20514;-58
2022/12/07 04:49:17;;;;;;;7.07;4.73;;;2.40;99.90;;;;;;5025111;28;21109;-58
2022/12/07 04:51:43;;;;;;;7.73;4.67;;;2.40;99.90;;;;;;5013059;28;20500;-58
2022/12/07 04:54:09;;;;;;;7.80;5.00;;;2.40;99.90;;;;;;5016182;28;20442;-58
2022/12/07 04:56:35;;;;;;;7.10;4.50;;;2.40;99.90;;;;;;5016235;28;20540;-58
2022/12/07 04:59:01;;;;;;;7.93;4.60;;;2.40;99.90;;;;;;5020955;28;20263;-58
2022/12/07 05:01:27;;;;;;;10.63;5.20;;;2.40;99.90;;;;;;5001880;28;20440;-58
2022/12/07 05:03:53;;;;;;;6.80;4.87;;;2.40;99.90;;;;;;5021325;28;20435;-58
2022/12/07 05:06:19;;;;;;;8.33;4.63;;;2.40;99.90;;;;;;5021866;28;20187;-57
2022/12/07 05:08:44;;;;;;;7.23;4.57;;;2.40;99.90;;;;;;5018845;28;20190;-57
2022/12/07 05:11:37;;;;;;;8.37;5.13;;;2.40;99.90;;;;;;5019010;28;20184;-58
2022/12/07 05:13:59;;;;;;;10.80;6.13;;;2.40;99.90;;;;;;5020153;28;20187;-57
2022/12/07 05:16:25;;;;;;;7.63;5.00;;;2.40;99.90;;;;;;5006317;28;20462;-59
2022/12/07 05:18:51;;;;;;;7.83;4.80;;;2.40;99.90;;;;;;5021450;28;20437;-59
2022/12/07 05:21:16;;;;;;;9.00;5.53;;;2.40;99.90;;;;;;5012206;28;20179;-59
2022/12/07 05:23:42;;;;;;;7.37;5.30;;;2.40;99.90;;;;;;5022327;28;20187;-59
2022/12/07 05:26:07;;;;;;;9.00;5.50;;;2.40;99.90;;;;;;5015933;28;20202;-59
2022/12/07 05:28:33;;;;;;;8.37;5.30;;;2.40;99.90;;;;;;5012366;28;20273;-59
2022/12/07 05:30:59;;;;;;;6.83;4.60;;;2.40;99.90;;;;;;5016718;28;20183;-59
2022/12/07 05:33:24;;;;;;;6.57;4.33;;;2.40;99.90;;;;;;5013615;28;20262;-59
2022/12/07 05:35:50;;;;;;;8.57;4.60;;;2.30;99.90;;;;;;5022547;28;20293;-59
2022/12/07 05:38:15;;;;;;;7.47;5.10;;;2.30;99.90;;;;;;5025949;28;20780;-59
2022/12/07 05:40:41;;;;;;;7.03;5.20;;;2.30;99.90;;;;;;5018476;28;20190;-57
2022/12/07 05:43:06;;;;;;;6.50;4.83;;;2.30;99.90;;;;;;5000745;28;20237;-59
2022/12/07 05:45:32;;;;;;;5.83;4.40;;;2.30;99.90;;;;;;5000787;28;20276;-58
2022/12/07 05:47:58;;;;;;;6.53;4.60;;;2.30;99.90;;;;;;5016613;28;22116;-58
2022/12/07 05:50:24;;;;;;;7.90;4.80;;;2.20;99.90;;;;;;5026833;28;20525;-59
2022/12/07 05:52:49;;;;;;;5.27;4.40;;;2.20;99.90;;;;;;5019081;28;20199;-59
2022/12/07 05:55:15;;;;;;;9.50;5.43;;;2.30;99.90;;;;;;5022768;28;20199;-59
2022/12/07 05:59:22;;;;;;;8.43;5.37;;;2.30;99.90;;;;;;5015857;28;20668;-59
2022/12/07 06:00:26;;;;;;;7.17;5.23;;;2.20;99.90;;;;;;5023741;28;20182;-58
2022/12/07 06:02:51;;;;;;;8.90;5.37;;;2.20;99.90;;;;;;5010404;28;20442;-59
2022/12/07 06:05:17;;;;;;;8.27;5.27;;;2.20;99.90;;;;;;5020417;28;20272;-59
2022/12/07 06:07:43;;;;;;;9.93;6.90;;;2.20;99.90;;;;;;5012356;28;20200;-59
2022/12/07 06:10:09;;;;;;;7.20;5.47;;;2.20;99.90;;;;;;5010327;28;20194;-58
2022/12/07 06:12:34;;;;;;;10.87;6.50;;;2.20;99.90;;;;;;5016921;28;20679;-59
2022/12/07 06:15:00;;;;;;;8.53;5.47;;;2.20;99.90;;;;;;5020841;28;20446;-58
2022/12/07 06:17:26;;;;;;;7.00;5.67;;;2.20;99.90;;;;;;5015888;28;20230;-58
2022/12/07 06:19:51;;;;;;;9.13;5.53;;;2.30;99.90;;;;;;5021510;28;20438;-55
2022/12/07 06:22:17;;;;;;;9.50;5.77;;;2.20;99.90;;;;;;5024540;28;20183;-59
2022/12/07 06:24:43;;;;;;;11.07;6.70;;;2.30;99.90;;;;;;5019227;28;20187;-59
2022/12/07 06:27:10;;;;;;;9.87;6.27;;;2.30;99.90;;;;;;5020576;28;20207;-59
2022/12/07 06:29:35;;;;;;;9.70;6.70;;;2.20;99.90;;;;;;5025408;28;20434;-59
2022/12/07 06:32:01;;;;;;;8.40;5.83;;;2.20;99.90;;;;;;5020837;28;20441;-59
2022/12/07 06:34:27;;;;;;;7.40;5.20;;;2.20;99.90;;;;;;5008587;28;20184;-60
2022/12/07 06:36:54;;;;;;;6.23;4.90;;;2.20;99.90;;;;;;5025459;28;20242;-59
2022/12/07 06:39:23;;;;;;;8.30;5.40;;;2.20;99.90;;;;;;5023631;28;20195;-60
2022/12/07 06:41:49;;;;;;;8.47;5.87;;;2.10;99.90;;;;;;5023515;28;20434;-59
2022/12/07 06:44:15;;;;;;;9.07;5.13;;;2.10;99.90;;;;;;5026053;28;20945;-59
2022/12/07 06:46:40;;;;;;;7.90;5.57;;;2.10;99.90;;;;;;5025064;28;21175;-59
2022/12/07 06:49:06;;;;;;;6.97;5.70;;;2.10;99.90;;;;;;5025568;28;20211;-59
2022/12/07 06:51:36;;;;;;;11.00;7.20;;;2.10;99.90;;;;;;5008103;28;20808;-58
2022/12/07 06:54:02;;;;;;;13.07;7.20;;;2.10;99.90;;;;;;5012032;28;20443;-59
2022/12/07 06:56:28;;;;;;;11.60;6.40;;;2.10;99.90;;;;;;5021122;28;20468;-59
2022/12/07 06:58:54;;;;;;;11.73;7.67;;;2.10;99.90;;;;;;5020350;28;20887;-59
2022/12/07 07:01:19;;;;;;;10.07;6.73;;;2.00;99.90;;;;;;5026396;28;20183;-59
2022/12/07 07:03:47;;;;;;;10.37;7.00;;;2.00;99.90;;;;;;5005344;28;20798;-59
2022/12/07 07:06:13;;;;;;;14.40;8.53;;;2.00;99.90;;;;;;5027800;28;20843;-59
2022/12/07 07:08:39;;;;;;;14.63;8.70;;;2.00;99.90;;;;;;5016457;28;20488;-59
2022/12/07 07:11:06;;;;;;;13.63;7.03;;;2.00;99.90;;;;;;5019342;28;20478;-59
2022/12/07 07:13:32;;;;;;;11.83;7.10;;;2.00;99.90;;;;;;5016575;28;20435;-60
2022/12/07 07:15:58;;;;;;;10.57;7.10;;;2.00;99.90;;;;;;5020162;28;20980;-58
2022/12/07 07:18:24;;;;;;;11.30;6.30;;;2.00;99.90;;;;;;5020787;28;20534;-60
2022/12/07 07:20:51;;;;;;;9.20;6.50;;;2.00;99.90;;;;;;5018899;28;20184;-60
2022/12/07 07:23:17;;;;;;;10.83;6.63;;;2.00;99.90;;;;;;5009759;28;20192;-59
2022/12/07 07:25:43;;;;;;;13.10;7.90;;;2.00;99.90;;;;;;5018026;28;20456;-62
2022/12/07 07:28:09;;;;;;;11.27;7.43;;;2.00;99.90;;;;;;5016406;28;20969;-62
2022/12/07 07:30:34;;;;;;;11.83;7.57;;;2.00;99.90;;;;;;5003178;28;20450;-62
2022/12/07 07:33:02;;;;;;;12.10;6.80;;;2.00;99.90;;;;;;5020963;28;20199;-60
2022/12/07 07:35:29;;;;;;;9.60;6.20;;;2.00;99.90;;;;;;5019728;28;20272;-62
2022/12/07 07:37:55;;;;;;;21.60;6.53;;;2.00;99.90;;;;;;5017487;28;20454;-60
2022/12/07 07:40:21;;;;;;;13.80;6.80;;;2.10;99.90;;;;;;5024068;28;20430;-61
2022/12/07 07:42:48;;;;;;;6.83;4.43;;;2.10;99.90;;;;;;5010174;28;20222;-61
2022/12/07 07:45:14;;;;;;;7.73;4.20;;;2.10;99.90;;;;;;5021255;28;20646;-61
2022/12/07 07:47:39;;;;;;;6.37;4.50;;;2.00;99.90;;;;;;5022543;28;20485;-63
2022/12/07 07:50:06;;;;;;;6.17;4.33;;;2.00;99.90;;;;;;5025758;28;20838;-61
2022/12/07 07:52:31;;;;;;;6.73;4.80;;;2.10;99.90;;;;;;5024969;28;20212;-61
2022/12/07 07:54:57;;;;;;;8.30;4.50;;;2.00;99.90;;;;;;5026497;28;20465;-63
2022/12/07 07:57:23;;;;;;;7.83;5.20;;;2.00;99.90;;;;;;5025744;28;20312;-61
2022/12/07 07:59:48;;;;;;;9.97;5.83;;;2.00;99.90;;;;;;5018604;28;20655;-62
2022/12/07 08:02:17;;;;;;;8.70;6.13;;;2.00;99.90;;;;;;5023319;28;20185;-61
2022/12/07 08:04:44;;;;;;;7.40;5.30;;;2.00;99.90;;;;;;5022689;28;20195;-62
2022/12/07 08:07:10;;;;;;;9.97;6.37;;;2.00;99.90;;;;;;5022436;28;20484;-61
2022/12/07 08:09:35;;;;;;;10.10;6.03;;;2.00;99.90;;;;;;5026598;28;20462;-62
2022/12/07 08:12:01;;;;;;;7.87;5.47;;;2.00;99.90;;;;;;5027521;28;20465;-61
2022/12/07 08:14:28;;;;;;;8.90;6.00;;;2.00;99.90;;;;;;5022800;28;20234;-62
2022/12/07 08:16:54;;;;;;;9.50;6.33;;;2.00;99.90;;;;;;5018429;28;20214;-61
2022/12/07 08:19:20;;;;;;;9.47;6.03;;;2.00;99.90;;;;;;5007594;28;20811;-61
2022/12/07 08:21:45;;;;;;;12.10;7.23;;;2.00;99.90;;;;;;5007811;28;20188;-61
2022/12/07 08:24:11;;;;;;;11.07;6.80;;;2.00;99.90;;;;;;5022500;28;20207;-61
2022/12/07 08:26:37;;;;;;;10.73;5.90;;;1.90;99.90;;;;;;5022428;28;20683;-62
2022/12/07 08:29:02;;;;;;;9.10;5.93;;;2.00;99.90;;;;;;5021181;28;20195;-60
2022/12/07 08:31:28;;;;;;;9.93;5.93;;;2.00;99.90;;;;;;5023724;28;20654;-60
2022/12/07 08:33:55;;;;;;;12.13;7.57;;;2.00;99.90;;;;;;5020100;28;20811;-61
2022/12/07 08:36:22;;;;;;;16.60;9.23;;;2.00;99.90;;;;;;5004450;28;20239;-61
2022/12/07 08:38:48;;;;;;;18.93;11.10;;;2.00;99.90;;;;;;5008287;28;20431;-62
2022/12/07 08:41:13;;;;;;;11.90;8.10;;;2.00;99.90;;;;;;5003618;28;20438;-61
2022/12/07 08:43:39;;;;;;;10.10;7.13;;;2.00;99.90;;;;;;5019602;28;20184;-60
2022/12/07 08:46:09;;;;;;;12.93;7.63;;;2.10;99.90;;;;;;5018536;28;20184;-60
2022/12/07 08:48:43;;;;;;;10.83;6.90;;;2.10;99.90;;;;;;5018488;28;20253;-61
2022/12/07 08:51:09;;;;;;;10.37;7.17;;;2.10;99.90;;;;;;5024995;28;20446;-61
2022/12/07 08:53:36;;;;;;;12.67;6.93;;;2.20;99.90;;;;;;5022384;28;20437;-61
2022/12/07 08:56:02;;;;;;;13.20;8.10;;;2.20;99.90;;;;;;5020219;28;20466;-60
2022/12/07 08:58:28;;;;;;;13.30;7.47;;;2.20;99.90;;;;;;5021871;28;20462;-61
2022/12/07 09:00:53;;;;;;;11.43;7.47;;;2.30;99.90;;;;;;5016251;28;20186;-60
2022/12/07 09:03:19;;;;;;;14.80;8.57;;;2.30;99.90;;;;;;5010655;28;20187;-61
2022/12/07 09:05:44;;;;;;;14.20;8.50;;;2.30;99.90;;;;;;5024439;28;20178;-61
2022/12/07 09:08:10;;;;;;;9.60;6.37;;;2.40;99.90;;;;;;5021938;28;20254;-60
2022/12/07 09:10:36;;;;;;;11.47;7.07;;;2.50;99.90;;;;;;5022052;28;20720;-61
2022/12/07 09:13:01;;;;;;;13.90;7.40;;;2.50;99.90;;;;;;5004085;28;20180;-61
2022/12/07 09:15:28;;;;;;;7.40;5.13;;;2.60;99.90;;;;;;5023563;28;20575;-61
2022/12/07 09:17:54;;;;;;;10.33;5.93;;;2.50;99.90;;;;;;5020975;28;20192;-61
2022/12/07 09:20:20;;;;;;;13.90;7.40;;;2.50;99.90;;;;;;5020023;28;20843;-60
2022/12/07 09:22:45;;;;;;;13.20;6.50;;;2.60;99.90;;;;;;5008012;28;20190;-62
2022/12/07 09:25:11;;;;;;;11.30;6.33;;;2.60;99.90;;;;;;5005136;28;20188;-61
2022/12/07 09:27:37;;;;;;;15.27;6.73;;;2.60;99.90;;;;;;5025121;28;20195;-60
2022/12/07 09:30:04;;;;;;;9.10;6.20;;;2.70;99.90;;;;;;5015899;28;20229;-62
2022/12/07 09:32:29;;;;;;;11.97;6.50;;;2.70;99.90;;;;;;5007424;28;20183;-61
2022/12/07 09:34:55;;;;;;;11.07;6.47;;;2.70;99.90;;;;;;5025318;28;20864;-60
2022/12/07 09:37:21;;;;;;;12.37;7.17;;;2.70;99.90;;;;;;5010139;28;20735;-61
2022/12/07 09:39:46;;;;;;;10.20;5.90;;;2.80;99.90;;;;;;5019150;28;20314;-60
2022/12/07 09:42:32;;;;;;;9.60;6.00;;;2.90;99.90;;;;;;5004393;28;20799;-61
2022/12/07 09:44:58;;;;;;;10.30;5.80;;;3.00;99.90;;;;;;5024537;28;20757;-60
2022/12/07 09:47:24;;;;;;;7.93;5.23;;;3.10;99.90;;;;;;5020742;28;20586;-61
2022/12/07 09:49:50;;;;;;;9.73;5.67;;;3.10;99.90;;;;;;5021466;28;20470;-61
2022/12/07 09:52:28;;;;;;;10.40;6.00;;;3.10;99.90;;;;;;5026164;28;20458;-60
2022/12/07 09:54:53;;;;;;;9.17;5.67;;;3.00;99.90;;;;;;5025682;28;20179;-61
2022/12/07 09:57:31;;;;;;;9.30;5.80;;;3.00;99.90;;;;;;5003230;28;20680;-60
2022/12/07 10:00:01;;;;;;;7.50;5.07;;;3.00;99.90;;;;;;5029853;28;20651;-60
2022/12/07 10:02:38;;;;;;;10.10;5.90;;;3.00;99.90;;;;;;5031359;28;20415;-60
2022/12/07 10:05:06;;;;;;;9.40;5.80;;;3.00;99.90;;;;;;5026677;28;20530;-62
2022/12/07 10:07:32;;;;;;;9.40;6.00;;;3.10;99.90;;;;;;5029518;28;20490;-61
2022/12/07 10:09:57;;;;;;;10.20;5.50;;;3.00;99.90;;;;;;5010194;28;20873;-60
2022/12/07 10:12:23;;;;;;;8.97;6.10;;;3.00;99.90;;;;;;5026320;28;21878;-60
2022/12/07 10:15:00;;;;;;;10.50;5.77;;;3.10;99.90;;;;;;5021348;28;20186;-60
2022/12/07 10:17:40;;;;;;;6.80;5.07;;;3.10;99.90;;;;;;5029603;28;20835;-61
2022/12/07 10:20:11;;;;;;;8.80;5.73;;;3.10;99.90;;;;;;5031206;28;21085;-60
2022/12/07 10:22:37;;;;;;;9.00;5.70;;;3.10;99.90;;;;;;5031334;28;20418;-61
2022/12/07 10:25:19;;;;;;;14.40;5.90;;;3.20;99.90;;;;;;5020538;28;20433;-61
2022/12/07 10:28:13;;;;;;;10.60;6.20;;;3.20;99.90;;;;;;5026262;28;20203;-61
2022/12/07 10:31:04;;;;;;;9.50;6.57;;;3.30;99.90;;;;;;5028121;28;21062;-60
2022/12/07 10:33:49;;;;;;;13.30;7.60;;;3.30;99.90;;;;;;5024742;28;20425;-60
2022/12/07 10:36:22;;;;;;;9.00;6.27;;;3.30;99.90;;;;;;5027159;28;21036;-61
2022/12/07 10:39:01;;;;;;;9.60;7.00;;;3.30;99.90;;;;;;5024243;28;20438;-60
2022/12/07 10:41:27;;;;;;;14.47;7.63;;;3.30;99.90;;;;;;5023822;28;21138;-62
2022/12/07 10:43:56;;;;;;;12.93;7.53;;;3.40;99.90;;;;;;5025842;28;20445;-60
2022/12/07 10:46:30;;;;;;;13.03;7.50;;;3.40;99.90;;;;;;5024598;28;20432;-62
2022/12/07 10:49:21;;;;;;;15.00;7.60;;;3.40;99.90;;;;;;5007115;28;20438;-61
2022/12/07 10:52:01;;;;;;;10.07;7.10;;;3.50;99.90;;;;;;5025710;28;20497;-60
2022/12/07 10:55:03;;;;;;;11.07;6.57;;;3.60;99.90;;;;;;5023406;28;20456;-60
2022/12/07 10:57:38;;;;;;;10.30;6.40;;;3.70;99.90;;;;;;5025617;28;20489;-61
2022/12/07 11:00:18;;;;;;;11.07;6.30;;;3.70;99.90;;;;;;5019869;28;20444;-60
2022/12/07 11:03:14;;;;;;;10.60;6.00;;;3.80;99.90;;;;;;5024867;28;21101;-60
2022/12/07 11:05:51;;;;;;;13.50;6.97;;;3.80;99.90;;;;;;5020636;28;20882;-61
2022/12/07 11:08:52;;;;;;;9.63;6.50;;;3.80;99.90;;;;;;5021548;28;20455;-61
2022/12/07 11:11:21;;;;;;;10.97;6.47;;;3.80;99.90;;;;;;5004479;28;20494;-61
2022/12/07 11:14:10;;;;;;;13.97;6.40;;;3.90;99.90;;;;;;5019963;28;20426;-60
2022/12/07 11:17:03;;;;;;;10.63;6.17;;;3.90;99.90;;;;;;5018694;28;20467;-60
2022/12/07 11:19:52;;;;;;;13.97;5.10;;;3.90;99.20;;;;;;5020006;28;20422;-60
2022/12/07 11:22:55;;;;;;;9.70;5.60;;;4.00;96.50;;;;;;5017042;28;20421;-62
2022/12/07 11:25:53;;;;;;;7.80;5.33;;;4.00;96.80;;;;;;5016420;28;20442;-62
2022/12/07 11:28:24;;;;;;;5.77;4.67;;;4.00;97.60;;;;;;5022465;28;20523;-61
2022/12/07 11:31:10;;;;;;;8.67;4.77;;;4.10;96.00;;;;;;5018681;28;20552;-60
2022/12/07 11:33:39;;;;;;;9.00;4.87;;;4.10;95.70;;;;;;5022294;28;20426;-61
2022/12/07 11:36:23;;;;;;;6.50;4.57;;;4.10;96.80;;;;;;5031393;28;21078;-60
2022/12/07 11:38:59;;;;;;;5.57;3.83;;;4.10;94.30;;;;;;5023800;28;20431;-60
2022/12/07 11:41:40;;;;;;;5.43;4.20;;;4.10;94.00;;;;;;5018040;28;20932;-64
2022/12/07 11:44:14;;;;;;;6.90;4.27;;;4.10;95.30;;;;;;5017101;28;20422;-61
2022/12/07 11:47:02;;;;;;;5.20;3.90;;;4.20;93.80;;;;;;5013667;28;20450;-60
2022/12/07 11:49:37;;;;;;;6.30;3.90;;;4.20;91.90;;;;;;5018245;28;20438;-63
2022/12/07 11:52:06;;;;;;;4.63;3.60;;;4.20;90.00;;;;;;5021067;28;20425;-60
2022/12/07 11:54:41;;;;;;;5.67;4.17;;;4.20;88.00;;;;;;5020658;28;20439;-60
2022/12/07 11:57:26;;;;;;;5.33;3.70;;;4.20;91.00;;;;;;5022675;28;20504;-60
2022/12/07 12:00:01;;;;;;;5.20;3.93;;;4.30;87.40;;;;;;5004176;28;20952;-60
2022/12/07 12:02:41;;;;;;;5.30;3.47;;;4.20;89.40;;;;;;5009312;28;20958;-60
2022/12/07 12:05:18;;;;;;;3.07;2.73;;;4.20;90.50;;;;;;5018903;28;20964;-60
2022/12/07 12:07:46;;;;;;;3.93;2.80;;;4.20;90.50;;;;;;5024270;28;20473;-60
2022/12/07 12:10:38;;;;;;;5.53;3.43;;;4.10;89.50;;;;;;5020806;28;20438;-61
2022/12/07 12:13:34;;;;;;;4.43;3.40;;;4.00;88.60;;;;;;5021643;28;20482;-60
2022/12/07 12:16:15;;;;;;;4.47;3.20;;;3.90;90.90;;;;;;5013368;28;20472;-60
2022/12/07 12:18:46;;;;;;;7.50;3.60;;;3.90;91.70;;;;;;5020202;28;20939;-60
2022/12/07 12:21:19;;;;;;;5.30;3.40;;;3.90;91.60;;;;;;5019707;28;20435;-57
2022/12/07 12:23:50;;;;;;;5.57;3.40;;;3.90;91.80;;;;;;5024452;28;20435;-58
2022/12/07 12:26:27;;;;;;;5.60;4.07;;;3.90;91.90;;;;;;5021719;28;20433;-58
2022/12/07 12:28:58;;;;;;;6.77;4.10;;;4.00;91.80;;;;;;5020341;28;20422;-60
2022/12/07 12:31:27;;;;;;;5.07;3.57;;;4.00;90.40;;;;;;5023586;28;20433;-60
2022/12/07 12:33:58;;;;;;;5.93;3.77;;;4.00;90.60;;;;;;5017469;28;21020;-61
2022/12/07 12:36:42;;;;;;;8.27;4.07;;;4.00;85.10;;;;;;5021394;28;20454;-61
2022/12/07 12:39:08;;;;;;;7.30;4.00;;;4.00;88.60;;;;;;5007633;28;20434;-59
2022/12/07 12:44:19;;;;;;;10.33;5.70;;;4.10;90.70;;;;;;5018648;28;20270;-60
2022/12/07 12:46:54;;;;;;;10.97;5.60;;;4.10;91.70;;;;;;5022818;28;20441;-60
2022/12/07 12:49:19;;;;;;;7.37;5.07;;;4.10;91.80;;;;;;5015240;28;20970;-60
2022/12/07 12:51:49;;;;;;;10.27;6.23;;;4.10;91.20;;;;;;5024312;28;21054;-60
2022/12/07 12:54:26;;;;;;;9.83;6.70;;;4.10;92.80;;;;;;5023182;28;20185;-60
2022/12/07 12:57:15;;;;;;;11.20;6.13;;;4.10;93.10;;;;;;5016753;28;20470;-60
2022/12/07 12:59:56;;;;;;;8.93;5.70;;;4.10;93.60;;;;;;5006309;28;20545;-61
2022/12/07 13:02:30;;;;;;;10.53;5.37;;;4.10;94.00;;;;;;5022138;28;20446;-60
2022/12/07 13:05:03;;;;;;;12.27;6.23;;;4.10;94.30;;;;;;5018715;28;20441;-61
2022/12/07 13:07:48;;;;;;;17.20;7.53;;;4.10;94.90;;;;;;5022320;28;20447;-59
2022/12/07 13:10:23;;;;;;;10.00;6.20;;;4.10;95.80;;;;;;5019057;28;20445;-61
2022/12/07 13:13:24;;;;;;;12.40;6.80;;;4.00;95.80;;;;;;5020361;28;20967;-60
2022/12/07 13:15:54;;;;;;;11.73;5.33;;;4.00;96.10;;;;;;4960388;28;20471;-60